sensor_id;sensor_type;location;lat;lon;timestamp;pressure;altitude;pressure_sealevel;temperature;humidity
9521;BME280;4798;41.574;23.734;2023-04-04T00:00:53;93890.81;;;10.24;100.00
9521;BME280;4798;41.574;23.734;2023-04-04T00:03:21;93847.78;;;10.18;100.00
9521;BME280;4798;41.574;23.734;2023-04-04T00:05:51;93882.41;;;10.53;100.00
9521;BME280;4798;41.574;23.734;2023-04-04T00:08:20;93859.09;;;10.63;100.00
9521;BME280;4798;41.574;23.734;2023-04-04T00:10:48;93862.59;;;10.72;100.00
9521;BME280;4798;41.574;23.734;2023-04-04T00:13:17;93856.66;;;10.75;100.00
9521;BME280;4798;41.574;23.734;2023-04-04T00:15:45;93838.59;;;10.47;100.00
9521;BME280;4798;41.574;23.734;2023-04-04T00:18:14;93832.44;;;10.60;100.00
9521;BME280;4798;41.574;23.734;2023-04-04T00:20:43;93867.50;;;10.65;100.00
9521;BME280;4798;41.574;23.734;2023-04-04T00:23:12;93858.31;;;10.32;100.00
9521;BME280;4798;41.574;23.734;2023-04-04T00:25:41;93879.16;;;10.56;100.00
9521;BME280;4798;41.574;23.734;2023-04-04T00:28:09;93859.53;;;10.57;100.00
9521;BME280;4798;41.574;23.734;2023-04-04T00:30:38;93819.84;;;9.90;100.00
9521;BME280;4798;41.574;23.734;2023-04-04T00:33:07;93853.44;;;10.26;100.00
9521;BME280;4798;41.574;23.734;2023-04-04T00:35:35;93846.63;;;9.89;100.00
9521;BME280;4798;41.574;23.734;2023-04-04T00:38:04;93844.38;;;10.04;100.00
9521;BME280;4798;41.574;23.734;2023-04-04T00:40:39;93848.72;;;9.78;100.00
9521;BME280;4798;41.574;23.734;2023-04-04T00:43:08;93845.00;;;10.24;100.00
9521;BME280;4798;41.574;23.734;2023-04-04T00:45:37;93842.38;;;10.10;100.00
9521;BME280;4798;41.574;23.734;2023-04-04T00:48:06;93868.16;;;9.60;100.00
9521;BME280;4798;41.574;23.734;2023-04-04T00:50:34;93860.97;;;9.38;100.00
9521;BME280;4798;41.574;23.734;2023-04-04T00:53:02;93858.03;;;9.98;100.00
9521;BME280;4798;41.574;23.734;2023-04-04T00:55:31;93874.34;;;9.91;100.00
9521;BME280;4798;41.574;23.734;2023-04-04T00:58:02;93875.09;;;10.28;100.00
9521;BME280;4798;41.574;23.734;2023-04-04T01:00:32;93868.84;;;9.88;100.00
9521;BME280;4798;41.574;23.734;2023-04-04T01:03:01;93871.41;;;9.79;100.00
9521;BME280;4798;41.574;23.734;2023-04-04T01:05:31;93874.03;;;9.93;100.00
9521;BME280;4798;41.574;23.734;2023-04-04T01:08:00;93870.59;;;9.92;100.00
9521;BME280;4798;41.574;23.734;2023-04-04T01:10:29;93830.00;;;9.39;100.00
9521;BME280;4798;41.574;23.734;2023-04-04T01:13:00;93872.28;;;9.88;100.00
9521;BME280;4798;41.574;23.734;2023-04-04T01:15:29;93865.38;;;9.79;100.00
9521;BME280;4798;41.574;23.734;2023-04-04T01:17:59;93872.06;;;9.13;100.00
9521;BME280;4798;41.574;23.734;2023-04-04T01:20:31;93874.78;;;9.22;100.00
9521;BME280;4798;41.574;23.734;2023-04-04T01:23:01;93881.91;;;9.48;100.00
9521;BME280;4798;41.574;23.734;2023-04-04T01:25:33;93878.63;;;9.65;100.00
9521;BME280;4798;41.574;23.734;2023-04-04T01:28:01;93872.50;;;9.29;100.00
9521;BME280;4798;41.574;23.734;2023-04-04T01:30:31;93889.38;;;9.33;100.00
9521;BME280;4798;41.574;23.734;2023-04-04T01:33:08;93884.97;;;9.15;100.00
9521;BME280;4798;41.574;23.734;2023-04-04T01:35:42;93883.13;;;9.15;100.00
9521;BME280;4798;41.574;23.734;2023-04-04T01:38:17;93884.38;;;8.77;100.00
9521;BME280;4798;41.574;23.734;2023-04-04T01:40:52;93887.72;;;8.82;100.00
9521;BME280;4798;41.574;23.734;2023-04-04T01:43:22;93883.88;;;8.88;100.00
9521;BME280;4798;41.574;23.734;2023-04-04T01:45:50;93886.06;;;9.00;100.00
9521;BME280;4798;41.574;23.734;2023-04-04T01:48:19;93840.91;;;8.83;100.00
9521;BME280;4798;41.574;23.734;2023-04-04T01:50:48;93892.50;;;9.08;100.00
9521;BME280;4798;41.574;23.734;2023-04-04T01:53:16;93890.56;;;9.13;100.00
9521;BME280;4798;41.574;23.734;2023-04-04T01:55:44;93888.69;;;9.14;100.00
9521;BME280;4798;41.574;23.734;2023-04-04T01:58:14;93885.06;;;8.82;100.00
9521;BME280;4798;41.574;23.734;2023-04-04T02:00:42;93886.00;;;8.59;100.00
9521;BME280;4798;41.574;23.734;2023-04-04T02:03:11;93849.00;;;8.32;100.00
9521;BME280;4798;41.574;23.734;2023-04-04T02:05:39;93895.34;;;8.98;100.00
9521;BME280;4798;41.574;23.734;2023-04-04T02:08:08;93838.16;;;8.34;100.00
9521;BME280;4798;41.574;23.734;2023-04-04T02:10:36;93851.03;;;8.03;100.00
9521;BME280;4798;41.574;23.734;2023-04-04T02:13:05;93896.53;;;8.32;100.00
9521;BME280;4798;41.574;23.734;2023-04-04T02:15:35;93896.81;;;8.12;100.00
9521;BME280;4798;41.574;23.734;2023-04-04T02:18:03;93907.38;;;8.12;100.00
9521;BME280;4798;41.574;23.734;2023-04-04T02:20:31;93897.38;;;8.09;100.00
9521;BME280;4798;41.574;23.734;2023-04-04T02:23:00;93910.53;;;7.77;100.00
9521;BME280;4798;41.574;23.734;2023-04-04T02:25:28;93907.00;;;8.18;100.00
9521;BME280;4798;41.574;23.734;2023-04-04T02:27:57;93909.25;;;8.25;100.00
9521;BME280;4798;41.574;23.734;2023-04-04T02:30:25;93904.97;;;8.61;100.00
9521;BME280;4798;41.574;23.734;2023-04-04T02:32:58;93897.31;;;8.46;100.00
9521;BME280;4798;41.574;23.734;2023-04-04T02:35:26;93908.06;;;8.36;100.00
9521;BME280;4798;41.574;23.734;2023-04-04T02:37:54;93889.97;;;8.29;100.00
9521;BME280;4798;41.574;23.734;2023-04-04T02:40:23;93896.78;;;8.30;100.00
9521;BME280;4798;41.574;23.734;2023-04-04T02:42:51;93893.97;;;8.41;100.00
9521;BME280;4798;41.574;23.734;2023-04-04T02:45:19;93882.16;;;8.38;100.00
9521;BME280;4798;41.574;23.734;2023-04-04T02:47:48;93890.13;;;8.79;100.00
9521;BME280;4798;41.574;23.734;2023-04-04T02:50:18;93875.44;;;7.95;100.00
9521;BME280;4798;41.574;23.734;2023-04-04T02:52:47;93874.44;;;7.91;100.00
9521;BME280;4798;41.574;23.734;2023-04-04T02:55:15;93884.78;;;7.87;100.00
9521;BME280;4798;41.574;23.734;2023-04-04T02:57:49;93887.63;;;8.09;100.00
9521;BME280;4798;41.574;23.734;2023-04-04T03:00:18;93891.50;;;8.30;100.00
9521;BME280;4798;41.574;23.734;2023-04-04T03:02:52;93891.16;;;8.37;100.00
9521;BME280;4798;41.574;23.734;2023-04-04T03:05:23;93891.44;;;8.36;100.00
9521;BME280;4798;41.574;23.734;2023-04-04T03:07:52;93884.50;;;8.40;100.00
9521;BME280;4798;41.574;23.734;2023-04-04T03:10:23;93853.47;;;7.99;100.00
9521;BME280;4798;41.574;23.734;2023-04-04T03:12:52;93891.53;;;8.12;100.00
9521;BME280;4798;41.574;23.734;2023-04-04T03:15:20;93897.78;;;8.16;100.00
9521;BME280;4798;41.574;23.734;2023-04-04T03:17:49;93885.06;;;8.04;100.00
9521;BME280;4798;41.574;23.734;2023-04-04T03:20:17;93861.50;;;8.26;100.00
9521;BME280;4798;41.574;23.734;2023-04-04T03:22:47;93856.78;;;8.23;100.00
9521;BME280;4798;41.574;23.734;2023-04-04T03:25:16;93880.41;;;8.47;100.00
9521;BME280;4798;41.574;23.734;2023-04-04T03:27:44;93864.09;;;8.59;100.00
9521;BME280;4798;41.574;23.734;2023-04-04T03:30:13;93879.72;;;8.55;100.00
9521;BME280;4798;41.574;23.734;2023-04-04T03:32:41;93875.25;;;8.69;100.00
9521;BME280;4798;41.574;23.734;2023-04-04T03:35:10;93801.81;;;8.12;100.00
9521;BME280;4798;41.574;23.734;2023-04-04T03:37:38;93868.69;;;8.53;100.00
9521;BME280;4798;41.574;23.734;2023-04-04T03:40:10;93880.44;;;8.61;100.00
9521;BME280;4798;41.574;23.734;2023-04-04T03:42:39;93878.22;;;9.09;100.00
9521;BME280;4798;41.574;23.734;2023-04-04T03:45:08;93873.03;;;9.17;100.00
9521;BME280;4798;41.574;23.734;2023-04-04T03:47:37;93865.47;;;9.38;100.00
9521;BME280;4798;41.574;23.734;2023-04-04T03:50:06;93879.09;;;9.67;100.00
9521;BME280;4798;41.574;23.734;2023-04-04T03:52:36;93876.91;;;9.83;100.00
9521;BME280;4798;41.574;23.734;2023-04-04T03:55:06;93880.47;;;9.78;100.00
9521;BME280;4798;41.574;23.734;2023-04-04T03:57:37;93859.09;;;9.75;100.00
9521;BME280;4798;41.574;23.734;2023-04-04T04:00:06;93878.50;;;9.84;100.00
9521;BME280;4798;41.574;23.734;2023-04-04T04:02:34;93796.34;;;9.31;100.00
9521;BME280;4798;41.574;23.734;2023-04-04T04:05:04;93886.31;;;10.11;100.00
9521;BME280;4798;41.574;23.734;2023-04-04T04:07:32;93885.53;;;9.88;100.00
9521;BME280;4798;41.574;23.734;2023-04-04T04:10:00;93891.47;;;9.58;100.00
9521;BME280;4798;41.574;23.734;2023-04-04T04:12:29;93845.03;;;8.89;100.00
9521;BME280;4798;41.574;23.734;2023-04-04T04:14:59;93898.88;;;9.20;100.00
9521;BME280;4798;41.574;23.734;2023-04-04T04:17:27;93910.91;;;9.26;100.00
9521;BME280;4798;41.574;23.734;2023-04-04T04:19:56;93875.69;;;8.90;100.00
9521;BME280;4798;41.574;23.734;2023-04-04T04:22:24;93914.03;;;9.01;100.00
9521;BME280;4798;41.574;23.734;2023-04-04T04:24:52;93886.97;;;8.50;100.00
9521;BME280;4798;41.574;23.734;2023-04-04T04:27:21;93925.19;;;8.84;100.00
9521;BME280;4798;41.574;23.734;2023-04-04T04:29:49;93923.44;;;9.34;100.00
9521;BME280;4798;41.574;23.734;2023-04-04T04:32:19;93928.75;;;9.21;100.00
9521;BME280;4798;41.574;23.734;2023-04-04T04:34:48;93935.41;;;9.18;100.00
9521;BME280;4798;41.574;23.734;2023-04-04T04:37:16;93945.13;;;8.90;100.00
9521;BME280;4798;41.574;23.734;2023-04-04T04:39:44;93927.16;;;9.20;100.00
9521;BME280;4798;41.574;23.734;2023-04-04T04:42:12;93924.22;;;9.35;100.00
9521;BME280;4798;41.574;23.734;2023-04-04T04:44:41;93920.66;;;8.71;100.00
9521;BME280;4798;41.574;23.734;2023-04-04T04:47:09;93924.03;;;8.26;100.00
9521;BME280;4798;41.574;23.734;2023-04-04T04:49:39;93837.69;;;7.81;100.00
9521;BME280;4798;41.574;23.734;2023-04-04T04:52:08;93918.03;;;8.39;100.00
9521;BME280;4798;41.574;23.734;2023-04-04T04:54:36;93924.44;;;8.52;100.00
9521;BME280;4798;41.574;23.734;2023-04-04T04:57:05;93906.16;;;8.69;100.00
9521;BME280;4798;41.574;23.734;2023-04-04T04:59:33;93904.97;;;8.61;100.00
9521;BME280;4798;41.574;23.734;2023-04-04T05:02:03;93932.53;;;9.01;100.00
9521;BME280;4798;41.574;23.734;2023-04-04T05:04:31;93935.06;;;9.06;100.00
9521;BME280;4798;41.574;23.734;2023-04-04T05:07:01;93938.50;;;9.07;100.00
9521;BME280;4798;41.574;23.734;2023-04-04T05:09:29;93890.91;;;8.93;100.00
9521;BME280;4798;41.574;23.734;2023-04-04T05:11:57;93942.81;;;9.30;100.00
9521;BME280;4798;41.574;23.734;2023-04-04T05:14:26;93941.44;;;9.32;100.00
9521;BME280;4798;41.574;23.734;2023-04-04T05:16:54;93935.66;;;9.44;100.00
9521;BME280;4798;41.574;23.734;2023-04-04T05:19:23;93932.63;;;9.37;100.00
9521;BME280;4798;41.574;23.734;2023-04-04T05:21:51;93922.84;;;9.24;100.00
9521;BME280;4798;41.574;23.734;2023-04-04T05:24:21;93925.88;;;9.17;100.00
9521;BME280;4798;41.574;23.734;2023-04-04T05:26:50;93929.19;;;8.95;100.00
9521;BME280;4798;41.574;23.734;2023-04-04T05:29:18;93932.53;;;9.01;100.00
9521;BME280;4798;41.574;23.734;2023-04-04T05:31:46;93937.44;;;9.08;100.00
9521;BME280;4798;41.574;23.734;2023-04-04T05:34:15;93937.25;;;9.18;100.00
9521;BME280;4798;41.574;23.734;2023-04-04T05:36:43;93934.22;;;9.11;100.00
9521;BME280;4798;41.574;23.734;2023-04-04T05:39:12;93938.50;;;9.07;100.00
9521;BME280;4798;41.574;23.734;2023-04-04T05:41:41;93943.41;;;9.00;100.00
9521;BME280;4798;41.574;23.734;2023-04-04T05:44:10;93929.84;;;8.74;100.00
9521;BME280;4798;41.574;23.734;2023-04-04T05:46:38;93909.78;;;8.73;100.00
9521;BME280;4798;41.574;23.734;2023-04-04T05:49:06;93952.88;;;9.01;100.00
9521;BME280;4798;41.574;23.734;2023-04-04T05:51:35;93943.97;;;8.97;100.00
9521;BME280;4798;41.574;23.734;2023-04-04T05:54:03;93942.44;;;8.63;100.00
9521;BME280;4798;41.574;23.734;2023-04-04T05:56:33;93941.72;;;9.04;100.00
9521;BME280;4798;41.574;23.734;2023-04-04T05:59:03;93943.91;;;9.42;100.00
9521;BME280;4798;41.574;23.734;2023-04-04T06:01:31;93951.78;;;9.70;100.00
9521;BME280;4798;41.574;23.734;2023-04-04T06:04:00;93957.50;;;9.63;100.00
9521;BME280;4798;41.574;23.734;2023-04-04T06:06:28;93946.53;;;9.56;100.00
9521;BME280;4798;41.574;23.734;2023-04-04T06:08:56;93952.88;;;9.69;100.00
9521;BME280;4798;41.574;23.734;2023-04-04T06:11:25;93959.72;;;9.83;100.00
9521;BME280;4798;41.574;23.734;2023-04-04T06:13:53;93966.50;;;9.76;100.00
9521;BME280;4798;41.574;23.734;2023-04-04T06:16:23;93975.41;;;9.39;100.00
9521;BME280;4798;41.574;23.734;2023-04-04T06:18:51;93975.72;;;9.10;100.00
9521;BME280;4798;41.574;23.734;2023-04-04T06:21:20;93978.44;;;9.05;100.00
9521;BME280;4798;41.574;23.734;2023-04-04T06:23:48;93973.88;;;9.38;100.00
9521;BME280;4798;41.574;23.734;2023-04-04T06:26:16;93983.16;;;9.22;100.00
9521;BME280;4798;41.574;23.734;2023-04-04T06:28:47;93980.22;;;9.64;100.00
9521;BME280;4798;41.574;23.734;2023-04-04T06:31:17;93981.72;;;10.06;100.00
9521;BME280;4798;41.574;23.734;2023-04-04T06:33:47;93988.09;;;10.18;100.00
9521;BME280;4798;41.574;23.734;2023-04-04T06:36:15;94001.69;;;10.26;100.00
9521;BME280;4798;41.574;23.734;2023-04-04T06:38:44;93998.00;;;10.27;100.00
9521;BME280;4798;41.574;23.734;2023-04-04T06:41:12;94006.22;;;10.25;100.00
9521;BME280;4798;41.574;23.734;2023-04-04T06:43:41;94010.56;;;10.43;100.00
9521;BME280;4798;41.574;23.734;2023-04-04T06:46:09;94002.22;;;10.50;100.00
9521;BME280;4798;41.574;23.734;2023-04-04T06:48:37;94020.91;;;10.67;100.00
9521;BME280;4798;41.574;23.734;2023-04-04T06:51:07;94017.66;;;10.70;100.00
9521;BME280;4798;41.574;23.734;2023-04-04T06:53:36;94021.97;;;10.66;100.00
9521;BME280;4798;41.574;23.734;2023-04-04T06:56:05;94023.13;;;10.73;100.00
9521;BME280;4798;41.574;23.734;2023-04-04T06:58:33;94029.09;;;10.79;100.00
9521;BME280;4798;41.574;23.734;2023-04-04T07:01:02;94020.31;;;10.34;100.00
9521;BME280;4798;41.574;23.734;2023-04-04T07:03:30;93990.00;;;9.91;100.00
9521;BME280;4798;41.574;23.734;2023-04-04T07:06:01;94033.69;;;10.29;100.00
9521;BME280;4798;41.574;23.734;2023-04-04T07:08:31;94031.72;;;10.21;100.00
9521;BME280;4798;41.574;23.734;2023-04-04T07:11:03;93956.66;;;9.90;100.00
9521;BME280;4798;41.574;23.734;2023-04-04T07:13:32;94048.19;;;10.32;100.00
9521;BME280;4798;41.574;23.734;2023-04-04T07:16:01;94054.88;;;9.88;100.00
9521;BME280;4798;41.574;23.734;2023-04-04T07:18:29;94039.22;;;9.51;100.00
9521;BME280;4798;41.574;23.734;2023-04-04T07:20:58;94064.13;;;9.18;100.00
9521;BME280;4798;41.574;23.734;2023-04-04T07:23:26;94072.38;;;8.98;100.00
9521;BME280;4798;41.574;23.734;2023-04-04T07:25:56;94056.09;;;9.23;100.00
9521;BME280;4798;41.574;23.734;2023-04-04T07:28:24;94071.88;;;9.41;100.00
9521;BME280;4798;41.574;23.734;2023-04-04T07:30:53;94004.03;;;9.23;100.00
9521;BME280;4798;41.574;23.734;2023-04-04T07:33:21;94075.25;;;10.01;100.00
9521;BME280;4798;41.574;23.734;2023-04-04T07:35:49;94082.31;;;10.19;100.00
9521;BME280;4798;41.574;23.734;2023-04-04T07:38:18;94077.56;;;10.44;100.00
9521;BME280;4798;41.574;23.734;2023-04-04T07:40:47;94086.22;;;10.36;100.00
9521;BME280;4798;41.574;23.734;2023-04-04T07:43:17;94078.88;;;10.33;100.00
9521;BME280;4798;41.574;23.734;2023-04-04T07:45:45;94082.19;;;10.25;100.00
9521;BME280;4798;41.574;23.734;2023-04-04T07:48:14;94086.13;;;10.41;100.00
9521;BME280;4798;41.574;23.734;2023-04-04T07:50:42;94088.00;;;10.27;100.00
9521;BME280;4798;41.574;23.734;2023-04-04T07:53:10;94040.97;;;9.96;100.00
9521;BME280;4798;41.574;23.734;2023-04-04T07:55:38;94082.59;;;10.04;100.00
9521;BME280;4798;41.574;23.734;2023-04-04T07:58:07;94088.97;;;9.90;100.00
9521;BME280;4798;41.574;23.734;2023-04-04T08:00:36;94085.44;;;9.94;100.00
9521;BME280;4798;41.574;23.734;2023-04-04T08:03:05;94082.81;;;9.81;100.00
9521;BME280;4798;41.574;23.734;2023-04-04T08:05:34;94080.16;;;9.67;100.00
9521;BME280;4798;41.574;23.734;2023-04-04T08:08:02;94082.31;;;9.65;100.00
9521;BME280;4798;41.574;23.734;2023-04-04T08:10:30;94077.59;;;9.89;100.00
9521;BME280;4798;41.574;23.734;2023-04-04T08:12:59;94081.13;;;9.98;100.00
9521;BME280;4798;41.574;23.734;2023-04-04T08:15:27;94063.00;;;9.78;100.00
9521;BME280;4798;41.574;23.734;2023-04-04T08:17:58;94075.03;;;9.84;100.00
9521;BME280;4798;41.574;23.734;2023-04-04T08:20:26;94077.00;;;9.92;100.00
9521;BME280;4798;41.574;23.734;2023-04-04T08:22:55;94080.94;;;9.68;100.00
9521;BME280;4798;41.574;23.734;2023-04-04T08:25:23;94009.63;;;9.76;100.00
9521;BME280;4798;41.574;23.734;2023-04-04T08:27:52;94080.75;;;10.18;100.00
9521;BME280;4798;41.574;23.734;2023-04-04T08:30:20;94073.78;;;10.72;100.00
9521;BME280;4798;41.574;23.734;2023-04-04T08:32:49;94082.00;;;10.70;100.00
9521;BME280;4798;41.574;23.734;2023-04-04T08:35:18;94076.31;;;10.99;100.00
9521;BME280;4798;41.574;23.734;2023-04-04T08:37:47;94073.78;;;11.16;100.00
9521;BME280;4798;41.574;23.734;2023-04-04T08:40:15;94053.88;;;10.61;100.00
9521;BME280;4798;41.574;23.734;2023-04-04T08:42:44;94073.50;;;11.18;100.00
9521;BME280;4798;41.574;23.734;2023-04-04T08:45:16;94075.63;;;11.38;100.00
9521;BME280;4798;41.574;23.734;2023-04-04T08:47:47;93891.81;;;10.59;100.00
9521;BME280;4798;41.574;23.734;2023-04-04T08:50:19;94063.81;;;11.22;100.00
9521;BME280;4798;41.574;23.734;2023-04-04T08:52:48;94024.53;;;11.24;100.00
9521;BME280;4798;41.574;23.734;2023-04-04T08:55:17;94074.06;;;11.68;100.00
9521;BME280;4798;41.574;23.734;2023-04-04T08:57:46;94073.41;;;11.93;100.00
9521;BME280;4798;41.574;23.734;2023-04-04T09:00:15;93980.63;;;11.48;100.00
9521;BME280;4798;41.574;23.734;2023-04-04T09:02:48;93995.72;;;11.70;100.00
9521;BME280;4798;41.574;23.734;2023-04-04T09:05:20;94064.91;;;12.30;100.00
9521;BME280;4798;41.574;23.734;2023-04-04T09:07:49;94061.22;;;12.65;100.00
9521;BME280;4798;41.574;23.734;2023-04-04T09:10:18;94003.34;;;12.11;100.00
9521;BME280;4798;41.574;23.734;2023-04-04T09:12:47;94062.31;;;12.82;100.00
9521;BME280;4798;41.574;23.734;2023-04-04T09:15:16;94049.66;;;13.13;100.00
9521;BME280;4798;41.574;23.734;2023-04-04T09:17:44;94051.81;;;13.28;100.00
9521;BME280;4798;41.574;23.734;2023-04-04T09:20:36;94046.97;;;13.76;100.00
9521;BME280;4798;41.574;23.734;2023-04-04T09:23:08;94042.78;;;14.05;100.00
9521;BME280;4798;41.574;23.734;2023-04-04T09:25:43;94041.31;;;14.45;99.58
9521;BME280;4798;41.574;23.734;2023-04-04T09:28:26;94028.53;;;14.80;95.59
9521;BME280;4798;41.574;23.734;2023-04-04T09:30:55;94034.94;;;15.32;95.03
9521;BME280;4798;41.574;23.734;2023-04-04T09:33:24;94033.66;;;15.83;88.67
9521;BME280;4798;41.574;23.734;2023-04-04T09:35:57;94035.38;;;15.67;83.53
9521;BME280;4798;41.574;23.734;2023-04-04T09:38:27;94045.91;;;16.08;83.05
9521;BME280;4798;41.574;23.734;2023-04-04T09:40:56;94032.28;;;16.49;74.02
9521;BME280;4798;41.574;23.734;2023-04-04T09:43:25;94026.69;;;16.79;79.54
9521;BME280;4798;41.574;23.734;2023-04-04T09:45:57;94027.72;;;17.02;74.07
9521;BME280;4798;41.574;23.734;2023-04-04T09:48:29;94023.59;;;17.04;67.54
9521;BME280;4798;41.574;23.734;2023-04-04T09:51:03;94026.06;;;17.53;67.75
9521;BME280;4798;41.574;23.734;2023-04-04T09:53:33;94026.69;;;17.77;64.51
9521;BME280;4798;41.574;23.734;2023-04-04T09:56:03;94024.94;;;18.48;68.20
9521;BME280;4798;41.574;23.734;2023-04-04T09:58:32;94027.88;;;18.77;63.45
9521;BME280;4798;41.574;23.734;2023-04-04T10:01:06;94019.72;;;19.47;62.50
9521;BME280;4798;41.574;23.734;2023-04-04T10:03:36;94026.13;;;19.84;61.68
9521;BME280;4798;41.574;23.734;2023-04-04T10:06:07;94032.63;;;19.38;60.39
9521;BME280;4798;41.574;23.734;2023-04-04T10:08:39;94029.19;;;19.22;62.64
9521;BME280;4798;41.574;23.734;2023-04-04T10:11:09;94025.97;;;18.78;61.74
9521;BME280;4798;41.574;23.734;2023-04-04T10:13:39;94027.72;;;18.51;63.02
9521;BME280;4798;41.574;23.734;2023-04-04T10:16:10;94022.34;;;18.20;59.14
9521;BME280;4798;41.574;23.734;2023-04-04T10:18:39;94022.03;;;17.74;62.04
9521;BME280;4798;41.574;23.734;2023-04-04T10:21:09;94023.91;;;17.03;60.61
9521;BME280;4798;41.574;23.734;2023-04-04T10:23:43;93973.81;;;16.36;60.99
9521;BME280;4798;41.574;23.734;2023-04-04T10:26:12;93978.13;;;16.52;61.53
9521;BME280;4798;41.574;23.734;2023-04-04T10:28:41;94018.97;;;17.17;62.87
9521;BME280;4798;41.574;23.734;2023-04-04T10:31:16;94011.13;;;17.83;60.70
9521;BME280;4798;41.574;23.734;2023-04-04T10:33:57;94010.81;;;17.41;60.93
9521;BME280;4798;41.574;23.734;2023-04-04T10:36:31;94023.59;;;17.75;63.37
9521;BME280;4798;41.574;23.734;2023-04-04T10:39:10;94017.81;;;18.55;58.06
9521;BME280;4798;41.574;23.734;2023-04-04T10:41:40;93962.16;;;18.02;60.68
9521;BME280;4798;41.574;23.734;2023-04-04T10:44:16;94021.69;;;17.48;61.08
9521;BME280;4798;41.574;23.734;2023-04-04T10:46:47;94005.63;;;16.77;61.33
9521;BME280;4798;41.574;23.734;2023-04-04T10:49:18;93994.13;;;17.32;63.23
9521;BME280;4798;41.574;23.734;2023-04-04T10:51:49;94010.75;;;17.53;61.92
9521;BME280;4798;41.574;23.734;2023-04-04T10:54:24;94014.69;;;17.44;60.44
9521;BME280;4798;41.574;23.734;2023-04-04T10:56:52;93956.44;;;17.25;59.82
9521;BME280;4798;41.574;23.734;2023-04-04T10:59:24;93997.97;;;18.09;61.53
9521;BME280;4798;41.574;23.734;2023-04-04T11:01:55;93998.34;;;18.58;61.95
9521;BME280;4798;41.574;23.734;2023-04-04T11:04:31;93967.66;;;18.24;58.85
9521;BME280;4798;41.574;23.734;2023-04-04T11:07:20;93982.94;;;18.05;58.33
9521;BME280;4798;41.574;23.734;2023-04-04T11:09:55;93926.81;;;18.66;57.34
9521;BME280;4798;41.574;23.734;2023-04-04T11:12:28;93970.66;;;19.50;55.21
9521;BME280;4798;41.574;23.734;2023-04-04T11:15:06;93956.88;;;19.13;58.91
9521;BME280;4798;41.574;23.734;2023-04-04T11:18:04;93974.06;;;19.70;57.30
9521;BME280;4798;41.574;23.734;2023-04-04T11:20:53;93968.59;;;19.66;55.08
9521;BME280;4798;41.574;23.734;2023-04-04T11:23:23;93970.50;;;19.24;56.96
9521;BME280;4798;41.574;23.734;2023-04-04T11:25:54;93970.94;;;19.26;54.87
9521;BME280;4798;41.574;23.734;2023-04-04T11:28:41;93961.56;;;20.30;54.53
9521;BME280;4798;41.574;23.734;2023-04-04T11:31:25;93958.13;;;20.88;54.58
9521;BME280;4798;41.574;23.734;2023-04-04T11:33:55;93953.38;;;22.33;48.37
9521;BME280;4798;41.574;23.734;2023-04-04T11:36:52;93958.63;;;20.98;50.16
9521;BME280;4798;41.574;23.734;2023-04-04T11:39:24;93957.53;;;19.48;53.18
9521;BME280;4798;41.574;23.734;2023-04-04T11:41:55;93961.97;;;19.37;55.72
9521;BME280;4798;41.574;23.734;2023-04-04T11:44:26;93963.19;;;19.62;55.68
9521;BME280;4798;41.574;23.734;2023-04-04T11:47:00;93886.75;;;19.86;53.89
9521;BME280;4798;41.574;23.734;2023-04-04T11:49:33;93948.28;;;19.91;53.23
9521;BME280;4798;41.574;23.734;2023-04-04T11:52:06;93920.94;;;18.98;54.33
9521;BME280;4798;41.574;23.734;2023-04-04T11:54:38;93949.63;;;18.94;54.10
9521;BME280;4798;41.574;23.734;2023-04-04T11:57:10;93938.84;;;18.72;55.40
9521;BME280;4798;41.574;23.734;2023-04-04T11:59:39;93938.69;;;18.84;56.33
9521;BME280;4798;41.574;23.734;2023-04-04T12:02:08;93939.28;;;19.57;55.05
9521;BME280;4798;41.574;23.734;2023-04-04T12:04:37;93928.38;;;20.22;53.04
9521;BME280;4798;41.574;23.734;2023-04-04T12:07:09;93922.41;;;21.25;51.66
9521;BME280;4798;41.574;23.734;2023-04-04T12:09:40;93928.63;;;20.66;50.74
9521;BME280;4798;41.574;23.734;2023-04-04T12:12:11;93919.41;;;20.67;49.49
9521;BME280;4798;41.574;23.734;2023-04-04T12:14:40;93916.84;;;21.47;49.00
9521;BME280;4798;41.574;23.734;2023-04-04T12:17:09;93908.78;;;21.95;46.45
9521;BME280;4798;41.574;23.734;2023-04-04T12:19:39;93912.91;;;23.19;42.91
9521;BME280;4798;41.574;23.734;2023-04-04T12:22:07;93916.09;;;23.49;46.38
9521;BME280;4798;41.574;23.734;2023-04-04T12:24:36;93902.69;;;22.70;44.39
9521;BME280;4798;41.574;23.734;2023-04-04T12:27:06;93896.72;;;21.82;43.18
9521;BME280;4798;41.574;23.734;2023-04-04T12:29:34;93895.22;;;22.46;45.72
9521;BME280;4798;41.574;23.734;2023-04-04T12:32:04;93891.16;;;22.77;44.98
9521;BME280;4798;41.574;23.734;2023-04-04T12:34:34;93886.66;;;23.23;43.26
9521;BME280;4798;41.574;23.734;2023-04-04T12:37:15;93895.75;;;22.04;43.77
9521;BME280;4798;41.574;23.734;2023-04-04T12:39:48;93882.38;;;23.15;47.03
9521;BME280;4798;41.574;23.734;2023-04-04T12:42:23;93856.59;;;23.46;44.77
9521;BME280;4798;41.574;23.734;2023-04-04T12:44:53;93871.28;;;23.76;43.02
9521;BME280;4798;41.574;23.734;2023-04-04T12:47:21;93879.16;;;22.70;44.71
9521;BME280;4798;41.574;23.734;2023-04-04T12:49:52;93873.09;;;22.19;46.45
9521;BME280;4798;41.574;23.734;2023-04-04T12:52:25;93860.31;;;21.14;47.32
9521;BME280;4798;41.574;23.734;2023-04-04T12:54:58;93885.34;;;21.15;47.00
9521;BME280;4798;41.574;23.734;2023-04-04T12:57:33;93796.97;;;19.94;47.34
9521;BME280;4798;41.574;23.734;2023-04-04T13:00:03;93880.25;;;20.73;47.84
9521;BME280;4798;41.574;23.734;2023-04-04T13:02:34;93859.59;;;20.51;47.59
9521;BME280;4798;41.574;23.734;2023-04-04T13:05:05;93888.34;;;19.00;47.96
9521;BME280;4798;41.574;23.734;2023-04-04T13:07:35;93883.53;;;18.48;50.01
9521;BME280;4798;41.574;23.734;2023-04-04T13:10:10;93887.97;;;18.79;50.27
9521;BME280;4798;41.574;23.734;2023-04-04T13:12:57;93892.16;;;18.22;51.24
9521;BME280;4798;41.574;23.734;2023-04-04T13:15:48;93895.75;;;17.60;53.67
9521;BME280;4798;41.574;23.734;2023-04-04T13:18:18;93891.81;;;17.73;56.94
9521;BME280;4798;41.574;23.734;2023-04-04T13:20:48;93893.00;;;17.92;56.85
9521;BME280;4798;41.574;23.734;2023-04-04T13:23:17;93894.09;;;18.41;57.61
9521;BME280;4798;41.574;23.734;2023-04-04T13:25:45;93898.66;;;17.71;58.17